Cou Falls, Iowa
Current Conditions -  °F | °C
As of 1:36 PM on Friday 24 Oct 2014 (Local Time) from KCID Reporting Station
Haze Haze  
Wind Chill: 58°   Ceiling: 600
Heat Index: 58°   Visibility: 6mi
Dew Point: 57°   Wind: 12mph
Humidity: 97%   Direction: 160°SSE
Pressure: 29.94"   Gusts: 20mph
Location:  41.8309°N, 91.7193°W
Report Text: KCID 241836Z 16010G17KT 6SM BR OVC006 14/14 A2994 RMK AO2 CIG 003V008 T01440139
Loading
Personal Weather Stations






























Interactive Weather Map New forecast layout! Learn more

10-Day Weather Forecast

Advertisements
Track Severe Weather on mobile